Latest Weather Observations for Mount Lofty

IDS60901

Issued at 10:01 pm CST Tuesday 25 April 2017 (issued every 10 minutes, with the page automatically refreshed every 10 minutes)

About weather observations | Map of Adelaide area stations | Latest observations for Adelaide area | Other Formats
Station Details ID: 023842 Name: MOUNT LOFTY Lat: -34.98 Lon: 138.71 Height: 685.0 m
Data from the previous 72 hours. | See also: Recent months at Mount Lofty
Date/Time
CST
Temp
°C
App
Temp
°C
Dew
Point
°C
Rel
Hum
%
Delta-T
°C
Wind Press
QNH
hPa
Press
MSL
hPa
Rain since
9am
mm
Dir  Spd
km/h
Gust
km/h
Spd
kts
Gust
kts
25/10:00pm 10.1 6.6 8.7 91 0.7 W 17 33 9 18 - - 5.2
25/09:30pm 10.1 6.5 8.5 90 0.8 W 17 37 9 20 - - 5.2
25/09:00pm 9.8 6.6 8.4 91 0.7 W 15 30 8 16 - - 5.2
25/08:30pm 9.5 6.4 7.3 86 1.1 W 13 26 7 14 - - 5.2
25/08:00pm 9.2 5.4 7.6 90 0.8 W 17 37 9 20 - - 5.2
25/07:30pm 8.5 4.5 8.1 97 0.2 W 19 35 10 19 - - 5.2
25/07:00pm 10.3 6.7 10.0 98 0.2 W 19 37 10 20 - - 5.0
25/06:30pm 10.5 7.8 10.2 98 0.2 WNW 15 32 8 17 - - 3.8
25/06:00pm 10.1 8.4 9.8 98 0.2 W 9 19 5 10 - - 3.6
25/05:30pm 9.8 7.2 9.5 98 0.2 W 13 30 7 16 - - 3.2
25/05:00pm 10.3 7.9 10.0 98 0.2 W 13 32 7 17 - - 2.0
25/04:30pm 11.0 8.7 10.5 97 0.3 W 13 30 7 16 - - 1.2
25/04:00pm 10.9 8.6 10.3 96 0.3 W 13 32 7 17 - - 1.2
25/03:30pm 11.7 9.2 9.6 87 1.1 WNW 13 26 7 14 - - 0.2
25/03:00pm 13.2 10.5 8.9 75 2.2 W 13 28 7 15 - - 0.0
25/02:30pm 14.4 11.7 10.2 76 2.3 WNW 15 32 8 17 - - 0.0
25/02:00pm 14.0 11.9 9.6 75 2.3 W 11 24 6 13 - - 0.0
25/01:30pm 13.4 11.7 10.0 80 1.8 W 9 15 5 8 - - 0.0
25/01:00pm 13.4 11.4 11.5 88 1.0 WNW 13 32 7 17 - - 0.0
25/12:30pm 14.2 13.2 13.4 95 0.5 W 11 20 6 11 - - 0.0
25/12:00pm 12.9 12.0 12.6 98 0.2 W 9 19 5 10 - - 0.0
25/11:30am 12.4 11.0 12.1 98 0.2 W 11 19 6 10 - - 0.0
25/11:00am 11.8 10.6 11.5 98 0.2 W 9 19 5 10 - - 0.0
25/10:30am 11.8 10.2 11.5 98 0.2 W 11 24 6 13 - - 0.0
25/10:00am 12.1 11.3 11.8 98 0.2 W 7 15 4 8 - - 0.0
25/09:30am 11.6 10.7 11.3 98 0.2 W 7 15 4 8 - - 0.0
25/09:00am 11.4 10.4 11.1 98 0.2 W 7 20 4 11 - - 14.4
25/08:30am 11.2 10.2 10.9 98 0.2 W 7 15 4 8 - - 14.4
25/08:00am 10.9 10.0 10.6 98 0.2 W 6 13 3 7 - - 14.4
25/07:30am 10.9 9.4 10.6 98 0.2 W 9 22 5 12 - - 14.4
25/07:00am 11.4 10.1 11.1 98 0.2 W 9 19 5 10 - - 14.4
25/06:30am 11.6 9.9 11.3 98 0.2 W 11 22 6 12 - - 14.2
25/06:00am 11.8 9.8 11.5 98 0.2 W 13 33 7 18 - - 14.2
25/05:30am 11.7 9.7 11.4 98 0.2 W 13 28 7 15 - - 14.2
25/05:00am 11.5 9.4 11.2 98 0.2 W 13 28 7 15 - - 14.2
25/04:30am 11.5 9.4 11.2 98 0.2 W 13 24 7 13 - - 14.2
25/04:00am 11.5 8.7 11.2 98 0.2 WNW 17 33 9 18 - - 14.2
25/03:30am 11.5 9.4 11.2 98 0.2 WNW 13 28 7 15 - - 14.2
25/03:00am 11.6 9.9 11.3 98 0.2 W 11 19 6 10 - - 14.2
25/02:30am 11.5 10.2 11.2 98 0.2 W 9 20 5 11 - - 14.2
25/02:00am 11.6 10.3 11.3 98 0.2 W 9 20 5 11 - - 14.2
25/01:30am 11.7 10.1 11.4 98 0.2 W 11 19 6 10 - - 14.2
25/01:00am 12.2 10.7 11.9 98 0.2 W 11 26 6 14 - - 14.2
25/12:30am 12.5 11.1 12.2 98 0.2 W 11 24 6 13 - - 14.2
25/12:00am 12.9 11.6 12.6 98 0.2 W 11 22 6 12 - - 14.0
 
Date/Time
CST
Temp
°C
App
Temp
°C
Dew
Point
°C
Rel
Hum
%
Delta-T
°C
Wind Press
QNH
hPa
Press
MSL
hPa
Rain since
9am
mm
Dir  Spd
km/h
Gust
km/h
Spd
kts
Gust
kts
24/11:30pm 13.1 12.3 12.8 98 0.2 WNW 9 19 5 10 - - 13.4
24/11:00pm 13.2 11.6 12.9 98 0.2 WNW 13 24 7 13 - - 13.2
24/10:30pm 13.5 12.4 13.2 98 0.2 WNW 11 20 6 11 - - 13.2
24/10:00pm 13.4 12.3 13.1 98 0.2 WNW 11 22 6 12 - - 13.0
24/09:30pm 13.3 11.8 13.0 98 0.2 WNW 13 26 7 14 - - 13.0
24/09:00pm 13.4 11.5 13.1 98 0.2 WNW 15 26 8 14 - - 13.0
24/08:30pm 13.2 11.3 12.9 98 0.2 WNW 15 26 8 14 - - 13.0
24/08:00pm 13.1 11.5 12.8 98 0.2 WNW 13 26 7 14 - - 13.0
24/07:30pm 13.2 11.3 12.9 98 0.2 WNW 15 26 8 14 - - 12.8
24/07:00pm 13.2 11.6 12.9 98 0.2 WNW 13 20 7 11 - - 12.2
24/06:30pm 13.4 11.9 13.1 98 0.2 W 13 24 7 13 - - 11.6
24/06:00pm 13.7 11.2 13.4 98 0.2 WNW 19 33 10 18 - - 10.2
24/05:30pm 14.2 12.2 13.9 98 0.2 WNW 17 30 9 16 - - 9.6
24/05:00pm 13.8 11.7 13.5 98 0.2 WNW 17 33 9 18 - - 4.2
24/04:30pm 13.8 12.4 13.5 98 0.2 WNW 13 26 7 14 - - 4.0
24/04:00pm 13.6 11.4 13.3 98 0.2 WNW 17 30 9 16 - - 2.0
24/03:30pm 14.2 12.6 13.9 98 0.2 WNW 15 28 8 15 - - 0.2
24/03:00pm 14.2 12.2 13.9 98 0.2 WNW 17 28 9 15 - - 0.2
24/02:30pm 14.2 12.6 13.9 98 0.2 WNW 15 32 8 17 - - 0.2
24/02:00pm 14.6 13.1 14.3 98 0.2 WNW 15 30 8 16 - - 0.2
24/01:30pm 14.8 14.2 14.5 98 0.2 WNW 11 19 6 10 - - 0.2
24/01:00pm 14.7 14.4 14.4 98 0.2 NW 9 15 5 8 - - 0.2
24/12:30pm 14.5 13.3 14.0 97 0.3 NW 13 22 7 12 - - 0.0
24/12:00pm 14.3 13.0 13.8 97 0.3 NW 13 24 7 13 - - 0.0
24/11:30am 14.3 13.4 13.7 96 0.3 NW 11 19 6 10 - - 0.0
24/11:00am 14.6 13.7 13.6 94 0.6 NW 11 20 6 11 - - 0.0
24/10:30am 14.7 13.7 13.4 92 0.7 NW 11 17 6 9 - - 0.0
24/10:00am 14.7 14.0 13.1 90 0.9 NNW 9 15 5 8 - - 0.0
24/09:30am 14.7 14.0 13.1 90 0.9 NNW 9 17 5 9 - - 0.0
24/09:00am 15.0 13.9 13.0 88 1.1 NNW 11 19 6 10 - - 4.4
24/08:30am 15.1 14.6 12.8 86 1.3 NNW 7 15 4 8 - - 4.4
24/08:00am 15.5 14.6 12.6 83 1.6 NNW 9 20 5 11 - - 4.4
24/07:30am 15.6 14.7 12.5 82 1.8 N 9 13 5 7 - - 4.4
24/07:00am 15.6 15.2 12.9 84 1.5 N 7 17 4 9 - - 4.4
24/06:30am 13.4 13.5 12.8 96 0.3 ENE 4 6 2 3 - - 4.4
24/06:00am 13.5 13.6 12.7 95 0.5 ENE 4 9 2 5 - - 4.4
24/05:30am 13.5 13.3 13.0 97 0.3 ENE 6 11 3 6 - - 4.4
24/05:00am 13.1 12.8 12.6 97 0.3 E 6 11 3 6 - - 4.4
24/04:30am 12.8 12.4 12.3 97 0.3 E 6 9 3 5 - - 4.4
24/04:00am 12.4 11.9 11.9 97 0.3 E 6 9 3 5 - - 4.4
24/03:30am 12.2 11.4 11.7 97 0.3 ESE 7 11 4 6 - - 4.4
24/03:00am 11.9 11.0 11.3 96 0.3 ESE 7 11 4 6 - - 4.2
24/02:30am 12.0 10.7 11.4 96 0.3 ESE 9 15 5 8 - - 4.2
24/02:00am 12.0 10.7 11.2 95 0.4 ESE 9 15 5 8 - - 4.0
24/01:30am 12.0 10.7 11.2 95 0.4 ESE 9 15 5 8 - - 4.0
24/01:00am 12.3 11.4 11.4 94 0.5 ESE 7 13 4 7 - - 2.6
24/12:30am 12.7 11.8 11.4 92 0.7 ESE 7 9 4 5 - - 1.4
24/12:00am 13.7 12.3 11.0 84 1.5 ESE 9 13 5 7 - - 0.0
 
Date/Time
CST
Temp
°C
App
Temp
°C
Dew
Point
°C
Rel
Hum
%
Delta-T
°C
Wind Press
QNH
hPa
Press
MSL
hPa
Rain since
9am
mm
Dir  Spd
km/h
Gust
km/h
Spd
kts
Gust
kts
23/11:30pm 13.8 12.4 11.0 83 1.5 ESE 9 13 5 7 - - 0.0
23/11:00pm 13.8 12.5 11.1 84 1.5 ESE 9 15 5 8 - - 0.0
23/10:30pm 13.9 12.7 11.6 86 1.3 ESE 9 15 5 8 - - 0.0
23/10:00pm 14.0 12.8 11.7 86 1.3 ESE 9 13 5 7 - - 0.0
23/09:30pm 14.1 13.0 12.1 88 1.1 ESE 9 13 5 7 - - 0.0
23/09:00pm 14.3 13.6 12.0 86 1.3 ESE 7 13 4 7 - - 0.0
23/08:30pm 14.4 13.6 11.7 84 1.5 ESE 7 13 4 7 - - 0.0
23/08:00pm 14.7 13.5 11.5 81 1.8 ESE 9 15 5 8 - - 0.0
23/07:30pm 14.9 13.7 11.7 81 1.8 ESE 9 15 5 8 - - 0.0
23/07:00pm 15.1 14.6 11.9 81 1.8 ESE 6 11 3 6 - - 0.0
23/06:30pm 15.5 14.4 12.1 80 1.9 ESE 9 15 5 8 - - 0.0
23/06:00pm 15.7 15.1 12.3 80 1.9 ESE 7 9 4 5 - - 0.0
23/05:30pm 16.0 15.6 12.4 79 2.0 ESE 6 9 3 5 - - 0.0
23/05:00pm 16.3 16.4 12.8 80 2.0 ESE 4 7 2 4 - - 0.0
23/04:30pm 16.5 16.2 12.7 78 2.2 ESE 6 9 3 5 - - 0.0
23/04:00pm 16.5 16.1 12.5 77 2.3 ESE 6 9 3 5 - - 0.0
23/03:30pm 16.7 16.2 12.0 74 2.7 ESE 6 9 3 5 - - 0.0
23/03:00pm 17.1 16.8 12.6 75 2.6 ESE 6 11 3 6 - - 0.0
23/02:30pm 17.1 17.1 12.4 74 2.7 ESE 4 7 2 4 - - 0.0
23/02:00pm 16.9 16.5 12.4 75 2.6 ESE 6 9 3 5 - - 0.0
23/01:30pm 16.7 16.2 12.0 74 2.7 ESE 6 13 3 7 - - 0.0
23/01:00pm 17.4 16.9 12.1 71 3.0 ESE 6 13 3 7 - - 0.0
23/12:30pm 17.8 17.6 11.8 68 3.4 ENE 4 13 2 7 - - 0.0
23/12:00pm 18.7 18.2 12.7 68 3.5 ESE 7 17 4 9 - - 0.0
23/11:30am 18.1 17.9 13.0 72 3.0 ESE 6 13 3 7 - - 0.0
23/11:00am 17.3 16.5 11.8 70 3.1 ESE 7 15 4 8 - - 0.0
23/10:30am 17.5 17.0 12.2 71 3.0 ESE 6 13 3 7 - - 0.0
23/10:00am 15.6 14.7 11.4 76 2.3 ESE 7 15 4 8 - - 0.0
23/09:30am 15.1 14.1 10.9 76 2.3 ESE 7 15 4 8 - - 0.0
23/09:00am 14.2 13.1 10.8 80 1.9 ESE 7 13 4 7 - - 0.0
23/08:30am 13.6 12.6 10.4 81 1.7 ESE 6 11 3 6 - - 0.0
23/08:00am 13.5 12.3 10.3 81 1.7 ESE 7 13 4 7 - - 0.0
23/07:30am 12.1 11.0 10.0 87 1.1 ESE 6 11 3 6 - - 0.0
23/07:00am 12.0 10.7 10.1 88 1.0 ESE 7 13 4 7 - - 0.0
23/06:30am 11.7 10.6 10.6 93 0.6 ESE 7 15 4 8 - - 0.0
23/06:00am 11.6 10.6 11.0 96 0.3 ESE 7 13 4 7 - - 0.0
23/05:30am 11.1 10.0 10.6 97 0.3 ESE 7 11 4 6 - - 0.0
23/05:00am 11.3 9.9 10.8 97 0.3 ESE 9 15 5 8 - - 0.0
23/04:30am 11.2 10.1 10.7 97 0.3 ESE 7 15 4 8 - - 0.0
23/04:00am 11.6 10.9 11.3 98 0.2 ESE 6 11 3 6 - - 0.0
23/03:30am 11.6 10.7 11.3 98 0.2 ESE 7 11 4 6 - - 0.0
23/03:00am 11.8 10.9 11.5 98 0.2 ESE 7 13 4 7 - - 0.0
23/02:30am 11.8 10.6 11.5 98 0.2 ESE 9 13 5 7 - - 0.0
23/02:00am 11.9 10.7 11.6 98 0.2 ESE 9 13 5 7 - - 0.0
23/01:30am 12.0 10.8 11.7 98 0.2 ESE 9 17 5 9 - - 0.0
23/01:00am 11.9 10.6 11.4 97 0.3 ESE 9 15 5 8 - - 0.0
23/12:30am 11.9 10.6 11.4 97 0.3 ESE 9 17 5 9 - - 0.0
23/12:00am 11.9 10.3 11.4 97 0.3 ESE 11 19 6 10 - - 0.0
 
Date/Time
CST
Temp
°C
App
Temp
°C
Dew
Point
°C
Rel
Hum
%
Delta-T
°C
Wind Press
QNH
hPa
Press
MSL
hPa
Rain since
9am
mm
Dir  Spd
km/h
Gust
km/h
Spd
kts
Gust
kts
22/11:30pm 12.0 10.4 11.5 97 0.3 ESE 11 19 6 10 - - 0.0
22/11:00pm 12.0 10.4 11.5 97 0.3 ESE 11 17 6 9 - - 0.0
22/10:30pm 12.0 10.8 11.5 97 0.3 E 9 17 5 9 - - 0.0

Latest Capital City Observations: Canberra | Sydney | Melbourne | Brisbane | Adelaide | Perth | Hobart | Darwin

Other Formats:

Comma delimited format used in spreadsheet applications
http://www.bom.gov.au/fwo/IDS60901/IDS60901.95678.axf

JavaScript Object Notation format (JSON) in row-major order
http://www.bom.gov.au/fwo/IDS60901/IDS60901.95678.json